Terminal Aerodrome Forecast
Issued by NWS Louisville, KY

Home | Current Version | Previous Version | Text Only | Print | Product List | Glossary On
Versions: 1 2 3 4 5 6 7 8 9 10 11 12 13 14 15 16 17 18 19
000
FTUS43 KLMK 021300 AAA
TAFLEX
TAF AMD
KLEX 021326Z 0213/0312 21006KT 6SM -SHRA BR BKN008 BKN015
      TEMPO 0214/0216 26012KT 3SM -TSRA BR SCT008 BKN015CB
     FM021700 20010KT P6SM SCT025 BKN100
     FM022200 19007KT 6SM SHRA VCTS SCT025CB BKN035
     FM030600 VRB05KT 5SM BR SCT010 BKN100=

USA.gov is the U.S. government's official web portal to all federal, state and local government web resources and services.